PAAK

Details ICAO PAAK (AKB)
Name Atka
Region USA (Alaska)
Timezone America/Adak (UTC-9.0)
Plans Departing 15
Arriving 11
Stats Elevation 56 ft / 17 m (AMSL)
Location 52.220349° -174.206350°
Runways 1
Magnetic Variation 5.742° E
Sunrise 2018-05-22 15:33:10 UTC / 2018-05-22 06:33:10 Local
Sunset 2018-05-23 07:36:45 UTC / 2018-05-22 22:36:45 Local
Advertisement - Login to hide

Runways

ID Width Length Bearing (true) Bearing (mag) Surface Threshold Offset Overrun Length
15 85 ft / 26 m 3,286 ft / 1,002 m 168.36° 162.62° Asphalt 0 ft / 0 m 0 ft / 0 m
33 85 ft / 26 m 3,286 ft / 1,002 m 348.36° 342.62° Asphalt 0 ft / 0 m 0 ft / 0 m

Map

Weather


0- 5 10 15 20 25 30 35+ Temperature / ° C

Clouds and Precipitation
Forecast for 2018-05-23 12:00 UTC. Updated 30 minutes ago

Ground ~20,000 ft ~40,000 ft Winds

METAR

PAAK 230856Z AUTO 22010G16KT 10SM -RA BKN020 OVC027 05/02 A2947 RMK AO2 RAB20 SLP980 P0002 60006 T00500017 400830044 56009

TAF

Not found

Frequencies

Recorded 135.55 MHz AWOS 3
Unicom 122.90 MHz CTAF
Warning: Do not use this data for real-world aviation or navigation. No guarantee of current accuracy is given.